createdAt,value
2018-04-11T00:02:19.738Z,58.93
2018-04-11T00:04:47.300Z,53.57
2018-04-11T00:07:14.880Z,37.70
2018-04-11T00:09:42.477Z,42.43
2018-04-11T00:12:10.210Z,44.10
2018-04-11T00:14:37.873Z,38.47
2018-04-11T00:17:05.918Z,25.57
2018-04-11T00:19:33.702Z,29.23
2018-04-11T00:22:01.518Z,26.43
2018-04-11T00:24:29.888Z,25.90
2018-04-11T00:26:57.660Z,23.73
2018-04-11T00:29:26.090Z,24.53
2018-04-11T00:31:53.701Z,22.03
2018-04-11T00:34:21.272Z,18.57
2018-04-11T00:36:48.838Z,20.13
2018-04-11T00:39:16.562Z,17.87
2018-04-11T00:41:44.123Z,14.93
2018-04-11T00:44:11.840Z,13.77
2018-04-11T00:46:39.473Z,18.13
2018-04-11T00:49:07.043Z,15.37
2018-04-11T00:51:34.602Z,12.47
2018-04-11T00:54:02.297Z,11.90
2018-04-11T00:56:29.858Z,10.47
2018-04-11T00:58:57.413Z,13.93
2018-04-11T01:01:25.099Z,11.60
2018-04-11T01:03:52.754Z,13.33
2018-04-11T01:06:20.318Z,11.83
2018-04-11T01:08:47.907Z,11.07
2018-04-11T01:11:15.529Z,10.23
2018-04-11T01:13:43.090Z,11.20
2018-04-11T01:16:10.691Z,14.10
2018-04-11T01:18:38.269Z,71.90
2018-04-11T01:21:05.827Z,71.53
2018-04-11T01:23:33.697Z,66.83
2018-04-11T01:26:01.442Z,64.87
2018-04-11T01:28:29.013Z,189.47
2018-04-11T01:30:56.868Z,47.50
2018-04-11T01:33:24.482Z,55.20
2018-04-11T01:35:52.037Z,52.40
2018-04-11T01:38:19.637Z,23.40
2018-04-11T01:40:47.203Z,20.43
2018-04-11T01:43:14.764Z,24.40
2018-04-11T01:45:42.602Z,46.13
2018-04-11T01:48:10.923Z,59.23
2018-04-11T01:50:38.540Z,38.33
2018-04-11T01:53:06.999Z,28.00
2018-04-11T01:55:34.566Z,30.47
2018-04-11T01:58:02.171Z,29.87
2018-04-11T02:00:29.789Z,28.93
2018-04-11T02:02:57.793Z,28.50
2018-04-11T02:05:25.359Z,30.17
2018-04-11T02:07:53.146Z,30.17
2018-04-11T02:10:20.705Z,22.60
2018-04-11T02:12:48.266Z,17.33
2018-04-11T02:15:15.873Z,18.70
2018-04-11T02:17:43.495Z,16.57
2018-04-11T02:20:11.823Z,17.10
2018-04-11T02:22:39.412Z,13.23
2018-04-11T02:25:06.970Z,13.20
2018-04-11T02:27:34.590Z,13.23
2018-04-11T02:30:02.235Z,15.27
2018-04-11T02:32:30.071Z,12.83
2018-04-11T02:34:57.659Z,11.53
2018-04-11T02:37:26.107Z,11.37
2018-04-11T02:39:53.686Z,11.67
2018-04-11T02:42:21.387Z,17.43
2018-04-11T02:44:49.088Z,15.30
2018-04-11T02:47:17.538Z,13.67
2018-04-11T02:49:45.254Z,17.33
2018-04-11T02:52:13.612Z,18.33
2018-04-11T02:54:41.325Z,13.93
2018-04-11T02:57:09.039Z,16.23
2018-04-11T02:59:36.638Z,19.33
2018-04-11T03:02:04.368Z,18.70
2018-04-11T03:04:31.927Z,14.90
2018-04-11T03:06:59.526Z,16.17
2018-04-11T03:09:27.109Z,15.93
2018-04-11T03:11:54.681Z,14.80
2018-04-11T03:14:22.282Z,16.13
2018-04-11T03:16:50.684Z,17.53
2018-04-11T03:19:18.258Z,17.10
2018-04-11T03:21:45.862Z,22.07
2018-04-11T03:24:14.197Z,22.80
2018-04-11T03:26:41.750Z,26.70
2018-04-11T03:29:09.346Z,31.63
2018-04-11T03:31:37.078Z,38.07
2018-04-11T03:34:04.712Z,32.10
2018-04-11T03:36:32.317Z,29.47
2018-04-11T03:39:00.033Z,27.00
2018-04-11T03:41:27.590Z,27.17
2018-04-11T03:43:55.414Z,27.10
2018-04-11T03:46:22.973Z,26.47
2018-04-11T03:48:50.735Z,25.50
2018-04-11T03:51:18.418Z,24.57
2018-04-11T03:53:46.884Z,22.77
2018-04-11T03:56:15.210Z,19.60
2018-04-11T03:58:42.805Z,32.40
2018-04-11T04:01:10.634Z,30.33
2018-04-11T04:03:38.235Z,43.07
2018-04-11T04:06:05.829Z,42.10
2018-04-11T04:08:33.396Z,42.33
2018-04-11T04:11:00.977Z,44.43
2018-04-11T04:13:40.329Z,43.93
2018-04-11T04:16:19.766Z,44.67
2018-04-11T04:18:59.094Z,47.17
2018-04-11T04:21:26.656Z,32.23
2018-04-11T04:23:54.211Z,28.03
2018-04-11T04:26:21.900Z,34.33
2018-04-11T04:28:49.494Z,28.07
2018-04-11T04:31:17.070Z,31.53
2018-04-11T04:33:44.931Z,27.90
2018-04-11T04:36:12.817Z,27.37
2018-04-11T04:38:40.383Z,33.03
2018-04-11T04:41:07.996Z,32.47
2018-04-11T04:43:35.792Z,26.80
2018-04-11T04:46:03.477Z,36.90
2018-04-11T04:48:31.083Z,28.97
2018-04-11T04:50:58.883Z,28.83
2018-04-11T04:53:26.492Z,28.93
2018-04-11T04:55:54.095Z,30.53
2018-04-11T04:58:21.710Z,28.07
2018-04-11T05:00:50.419Z,43.53
2018-04-11T05:03:18.023Z,42.57
2018-04-11T05:05:45.655Z,40.40
2018-04-11T05:08:13.901Z,35.23
2018-04-11T05:10:41.845Z,44.23
2018-04-11T05:13:10.178Z,40.07
2018-04-11T05:15:37.763Z,34.57
2018-04-11T05:18:05.372Z,31.53
2018-04-11T05:20:32.987Z,41.87
2018-04-11T05:23:00.565Z,33.73
2018-04-11T05:25:28.947Z,34.87
2018-04-11T05:27:56.650Z,32.63
2018-04-11T05:30:24.230Z,26.93
2018-04-11T05:32:51.827Z,28.10
2018-04-11T05:35:20.173Z,26.83
2018-04-11T05:37:48.571Z,29.50
2018-04-11T05:40:17.200Z,31.30
2018-04-11T05:42:44.763Z,44.50
2018-04-11T05:45:12.523Z,30.33
2018-04-11T05:47:40.430Z,24.13
2018-04-11T05:50:08.004Z,29.33
2018-04-11T05:52:35.847Z,29.40
2018-04-11T05:55:03.678Z,23.63
2018-04-11T05:57:31.244Z,25.57
2018-04-11T05:59:59.162Z,25.33
2018-04-11T06:02:27.546Z,23.40
2018-04-11T06:04:55.448Z,24.33
2018-04-11T06:07:23.100Z,21.43
2018-04-11T06:09:50.700Z,20.57
2018-04-11T06:12:18.270Z,15.50
2018-04-11T06:14:46.611Z,20.40
2018-04-11T06:17:14.229Z,13.23
2018-04-11T06:19:41.920Z,15.33
2018-04-11T06:22:09.486Z,14.50
2018-04-11T06:24:37.107Z,16.03
2018-04-11T06:27:04.693Z,13.20
2018-04-11T06:29:32.263Z,15.40
2018-04-11T06:32:00.173Z,14.87
2018-04-11T06:34:28.502Z,15.90
2018-04-11T06:36:56.061Z,16.73
2018-04-11T06:39:23.654Z,15.93
2018-04-11T06:41:52.727Z,13.80
2018-04-11T06:44:20.286Z,9.67
2018-04-11T06:46:47.890Z,12.27
2018-04-11T06:49:15.501Z,10.83
2018-04-11T06:51:43.064Z,7.17
2018-04-11T06:54:10.770Z,9.40
2018-04-11T06:56:39.266Z,10.23
2018-04-11T06:59:06.940Z,12.47
2018-04-11T07:01:34.572Z,12.23
2018-04-11T07:04:02.926Z,10.83
2018-04-11T07:06:30.854Z,12.07
2018-04-11T07:08:58.601Z,8.93
2018-04-11T07:11:26.191Z,11.60
2018-04-11T07:13:53.758Z,7.13
2018-04-11T07:16:21.371Z,8.17
2018-04-11T07:18:48.962Z,21.60
2018-04-11T07:21:16.533Z,8.93
2018-04-11T07:23:44.122Z,7.70
2018-04-11T07:26:12.460Z,23.33
2018-04-11T07:28:40.022Z,21.10
2018-04-11T07:31:07.742Z,18.87
2018-04-11T07:33:35.303Z,15.57
2018-04-11T07:36:03.002Z,11.93
2018-04-11T07:38:30.615Z,17.00
2018-04-11T07:40:58.173Z,8.23
2018-04-11T07:43:26.522Z,9.67
2018-04-11T07:45:54.118Z,7.50
2018-04-11T07:48:21.879Z,13.03
2018-04-11T07:50:49.777Z,29.90
2018-04-11T07:53:17.378Z,15.33
2018-04-11T07:55:45.090Z,7.60
2018-04-11T07:58:12.667Z,15.53
2018-04-11T08:00:40.308Z,10.47
2018-04-11T08:03:08.146Z,13.00
2018-04-11T08:05:35.716Z,8.50
2018-04-11T08:08:04.241Z,9.47
2018-04-11T08:10:32.131Z,8.33
2018-04-11T08:13:00.460Z,9.40
2018-04-11T08:15:28.057Z,13.47
2018-04-11T08:17:55.778Z,12.40
2018-04-11T08:20:23.362Z,59.83
2018-04-11T08:22:50.983Z,19.40
2018-04-11T08:25:18.551Z,30.47
2018-04-11T08:27:46.131Z,20.00
2018-04-11T08:30:13.742Z,9.37
2018-04-11T08:32:41.318Z,6.93
2018-04-11T08:35:09.346Z,8.73
2018-04-11T08:37:36.994Z,22.50
2018-04-11T08:40:04.602Z,6.57
2018-04-11T08:42:32.167Z,9.37
2018-04-11T08:44:59.841Z,9.70
2018-04-11T08:47:27.394Z,8.30
2018-04-11T08:49:55.107Z,5.30
2018-04-11T08:52:23.046Z,5.37
2018-04-11T08:54:50.615Z,4.33
2018-04-11T08:57:18.460Z,6.43
2018-04-11T08:59:46.068Z,4.97
2018-04-11T09:02:13.627Z,7.60
2018-04-11T09:04:41.950Z,4.60
2018-04-11T09:07:09.764Z,4.50
2018-04-11T09:09:38.088Z,2.80
2018-04-11T09:12:05.653Z,2.43
2018-04-11T09:14:33.299Z,4.03
2018-04-11T09:17:00.860Z,3.73
2018-04-11T09:19:28.531Z,3.37
2018-04-11T09:21:56.138Z,2.90
2018-04-11T09:24:24.780Z,4.03
2018-04-11T09:26:52.603Z,3.70
2018-04-11T09:29:20.210Z,4.53
2018-04-11T09:31:47.827Z,2.63
2018-04-11T09:34:15.360Z,2.00
2018-04-11T09:36:42.966Z,3.73
2018-04-11T09:39:10.557Z,6.30
2018-04-11T09:41:38.118Z,6.20
2018-04-11T09:44:07.293Z,7.47
2018-04-11T09:46:34.938Z,7.00
2018-04-11T09:49:02.513Z,8.73
2018-04-11T09:51:30.311Z,7.53
2018-04-11T09:53:58.136Z,5.83
2018-04-11T09:56:25.774Z,5.60
2018-04-11T09:58:53.600Z,4.87
2018-04-11T10:01:21.573Z,5.07
2018-04-11T10:03:49.126Z,7.40
2018-04-11T10:06:17.772Z,7.37
2018-04-11T10:08:45.329Z,8.23
2018-04-11T10:11:12.919Z,5.57
2018-04-11T10:13:40.753Z,3.60
2018-04-11T10:16:08.551Z,6.20
2018-04-11T10:18:36.125Z,3.77
2018-04-11T10:21:03.884Z,8.07
2018-04-11T10:23:32.389Z,5.63
2018-04-11T10:26:00.074Z,2.97
2018-04-11T10:28:27.699Z,3.00
2018-04-11T10:30:56.135Z,3.13
2018-04-11T10:33:23.992Z,1.93
2018-04-11T10:35:51.661Z,3.27
2018-04-11T10:38:19.716Z,3.80
2018-04-11T10:40:47.274Z,2.97
2018-04-11T10:43:15.026Z,3.90
2018-04-11T10:45:42.662Z,1.90
2018-04-11T10:48:10.227Z,2.27
2018-04-11T10:50:38.095Z,4.43
2018-04-11T10:53:05.661Z,3.53
2018-04-11T10:55:33.243Z,4.27
2018-04-11T10:58:00.846Z,7.67
2018-04-11T11:00:29.309Z,5.23
2018-04-11T11:02:56.870Z,4.00
2018-04-11T11:05:24.530Z,6.37
2018-04-11T11:07:52.250Z,6.13
2018-04-11T11:10:20.019Z,2.30
2018-04-11T11:12:47.822Z,3.10
2018-04-11T11:15:15.627Z,5.67
2018-04-11T11:17:43.410Z,3.70
2018-04-11T11:20:11.353Z,2.27
2018-04-11T11:22:39.043Z,2.50
2018-04-11T11:25:06.612Z,5.03
2018-04-11T11:27:34.220Z,5.80
2018-04-11T11:30:02.555Z,6.13
2018-04-11T11:32:30.147Z,4.57
2018-04-11T11:34:59.051Z,4.60
2018-04-11T11:37:26.713Z,3.37
2018-04-11T11:39:54.284Z,4.17
2018-04-11T11:42:21.989Z,5.90
2018-04-11T11:44:49.837Z,5.53
2018-04-11T11:47:17.407Z,3.20
2018-04-11T11:49:45.239Z,3.30
2018-04-11T11:52:12.796Z,6.03
2018-04-11T11:54:40.355Z,4.20
2018-04-11T11:57:07.951Z,6.00
2018-04-11T11:59:36.051Z,3.20
2018-04-11T12:02:04.935Z,3.80
2018-04-11T12:04:32.541Z,5.67
2018-04-11T12:07:00.230Z,4.93
2018-04-11T12:09:28.077Z,5.30
2018-04-11T12:11:55.895Z,5.10
2018-04-11T12:14:23.601Z,2.33
2018-04-11T12:16:51.307Z,4.00
2018-04-11T12:19:18.908Z,2.60
2018-04-11T12:21:46.790Z,2.30
2018-04-11T12:24:14.379Z,3.87
2018-04-11T12:26:41.984Z,8.60
2018-04-11T12:29:09.771Z,4.20
2018-04-11T12:31:37.484Z,3.47
2018-04-11T12:34:05.886Z,5.10
2018-04-11T12:36:33.459Z,7.53
2018-04-11T12:39:01.323Z,4.13
2018-04-11T12:41:29.147Z,3.43
2018-04-11T12:43:56.714Z,6.37
2018-04-11T12:46:24.289Z,5.60
2018-04-11T12:48:51.911Z,7.83
2018-04-11T12:51:19.496Z,2.83
2018-04-11T12:53:47.223Z,6.70
2018-04-11T12:56:14.955Z,6.27
2018-04-11T12:58:42.699Z,1.90
2018-04-11T13:01:10.299Z,5.37
2018-04-11T13:03:38.086Z,30.73
2018-04-11T13:06:05.652Z,8.73
2018-04-11T13:08:33.439Z,20.53
2018-04-11T13:11:01.057Z,10.13
2018-04-11T13:13:29.157Z,7.80
2018-04-11T13:15:57.680Z,3.30
2018-04-11T13:18:25.330Z,3.27
2018-04-11T13:20:52.899Z,1.97
2018-04-11T13:23:20.603Z,25.40
2018-04-11T13:25:48.476Z,16.17
2018-04-11T13:28:16.140Z,4.00
2018-04-11T13:30:44.500Z,5.40
2018-04-11T13:33:12.283Z,3.57
2018-04-11T13:35:40.665Z,3.37
2018-04-11T13:38:08.619Z,12.03
2018-04-11T13:40:36.314Z,13.90
2018-04-11T13:43:03.885Z,46.73
2018-04-11T13:45:31.473Z,26.90
2018-04-11T13:47:59.081Z,5.93
2018-04-11T13:50:27.416Z,7.50
2018-04-11T13:52:54.981Z,5.53
2018-04-11T13:55:22.838Z,6.17
2018-04-11T13:57:50.527Z,10.23
2018-04-11T14:00:18.876Z,4.50
2018-04-11T14:02:46.617Z,7.53
2018-04-11T14:05:14.551Z,5.63
2018-04-11T14:07:42.884Z,13.33
2018-04-11T14:10:10.753Z,6.23
2018-04-11T14:12:38.314Z,5.13
2018-04-11T14:15:05.887Z,3.17
2018-04-11T14:17:33.655Z,6.40
2018-04-11T14:20:01.991Z,6.17
2018-04-11T14:22:29.576Z,3.47
2018-04-11T14:24:57.244Z,12.30
2018-04-11T14:27:24.821Z,8.60
2018-04-11T14:29:52.831Z,3.33
2018-04-11T14:32:20.466Z,2.27
2018-04-11T14:34:48.032Z,3.17
2018-04-11T14:37:15.607Z,4.17
2018-04-11T14:39:43.213Z,9.67
2018-04-11T14:42:10.782Z,2.97
2018-04-11T14:44:38.368Z,5.00
2018-04-11T14:47:06.028Z,19.87
2018-04-11T14:49:34.220Z,3.07
2018-04-11T14:52:02.350Z,4.17
2018-04-11T14:54:30.754Z,7.67
2018-04-11T14:56:58.333Z,4.73
2018-04-11T14:59:26.156Z,5.63
2018-04-11T15:01:54.410Z,7.53
2018-04-11T15:04:22.028Z,9.00
2018-04-11T15:06:49.967Z,5.23
2018-04-11T15:09:17.539Z,4.93
2018-04-11T15:11:45.146Z,6.77
2018-04-11T15:14:12.708Z,4.60
2018-04-11T15:16:40.340Z,5.87
2018-04-11T15:19:08.051Z,3.70
2018-04-11T15:21:36.406Z,8.20
2018-04-11T15:24:04.233Z,6.27
2018-04-11T15:26:31.795Z,5.03
2018-04-11T15:28:59.556Z,4.10
2018-04-11T15:31:27.523Z,6.20
2018-04-11T15:33:55.243Z,7.63
2018-04-11T15:36:23.598Z,3.77
2018-04-11T15:38:51.199Z,4.00
2018-04-11T15:41:18.759Z,4.80
2018-04-11T15:43:46.329Z,3.53
2018-04-11T15:46:25.874Z,10.30
2018-04-11T15:48:53.849Z,2.57
2018-04-11T15:51:21.470Z,4.37
2018-04-11T15:53:49.252Z,5.83
2018-04-11T15:56:16.888Z,5.23
2018-04-11T15:58:44.478Z,4.10
2018-04-11T16:01:12.177Z,5.53
2018-04-11T16:03:40.582Z,4.60
2018-04-11T16:06:08.157Z,6.50
2018-04-11T16:08:36.649Z,8.60
2018-04-11T16:11:04.329Z,13.03
2018-04-11T16:13:32.130Z,7.03
2018-04-11T16:15:59.737Z,6.50
2018-04-11T16:18:27.302Z,8.23
2018-04-11T16:20:54.860Z,5.83
2018-04-11T16:23:22.459Z,5.53
2018-04-11T16:25:50.014Z,2.80
2018-04-11T16:28:17.595Z,27.33
2018-04-11T16:30:45.967Z,28.97
2018-04-11T16:33:13.567Z,17.47
2018-04-11T16:35:41.142Z,19.07
2018-04-11T16:38:08.762Z,20.07
2018-04-11T16:40:37.094Z,20.57
2018-04-11T16:43:04.740Z,28.93
2018-04-11T16:45:32.353Z,29.83
2018-04-11T16:48:00.712Z,32.23
2018-04-11T16:50:28.287Z,75.20
2018-04-11T16:52:57.134Z,81.13
2018-04-11T16:55:24.710Z,30.10
2018-04-11T16:57:52.289Z,29.97
2018-04-11T17:00:19.910Z,76.90
2018-04-11T17:02:47.679Z,78.73
2018-04-11T17:05:16.361Z,43.10
2018-04-11T17:07:44.145Z,47.30
2018-04-11T17:10:11.835Z,51.93
2018-04-11T17:12:40.307Z,54.70
2018-04-11T17:15:08.850Z,31.17
2018-04-11T17:17:36.969Z,40.00
2018-04-11T17:20:04.590Z,41.73
2018-04-11T17:22:44.731Z,32.13
2018-04-11T17:25:24.167Z,34.77
2018-04-11T17:28:03.543Z,35.67
2018-04-11T17:33:33.732Z,42.00
2018-04-11T17:36:01.282Z,42.67
2018-04-11T17:38:28.868Z,57.27
2018-04-11T17:40:56.531Z,186.73
2018-04-11T17:43:24.112Z,215.13
2018-04-11T17:45:51.692Z,135.07
2018-04-11T17:48:19.426Z,132.60
2018-04-11T17:50:47.025Z,134.20
2018-04-11T17:53:14.716Z,129.13
2018-04-11T17:55:42.374Z,101.57
2018-04-11T17:58:10.186Z,79.90
2018-04-11T18:00:38.101Z,62.17
2018-04-11T18:03:05.764Z,69.40
2018-04-11T18:05:33.339Z,68.40
2018-04-11T18:08:01.084Z,70.07
2018-04-11T18:10:29.245Z,73.23
2018-04-11T18:12:56.822Z,64.37
2018-04-11T18:15:24.809Z,73.90
2018-04-11T18:17:52.454Z,71.03
2018-04-11T18:20:20.332Z,63.30
2018-04-11T18:22:47.983Z,55.37
2018-04-11T18:25:15.639Z,51.10
2018-04-11T18:27:43.232Z,62.57
2018-04-11T18:30:10.798Z,75.87
2018-04-11T18:32:38.513Z,67.70
2018-04-11T18:35:06.174Z,78.27
2018-04-11T18:37:34.042Z,87.53
2018-04-11T18:40:01.831Z,70.10
2018-04-11T18:42:29.412Z,50.27
2018-04-11T18:44:57.765Z,44.37
2018-04-11T18:47:25.705Z,45.73
2018-04-11T18:49:53.284Z,34.30
2018-04-11T18:52:20.857Z,27.90
2018-04-11T18:54:48.504Z,26.37
2018-04-11T18:57:16.105Z,26.30
2018-04-11T18:59:44.647Z,26.40
2018-04-11T19:02:12.270Z,22.83
2018-04-11T19:04:39.848Z,22.77
2018-04-11T19:07:07.495Z,23.40
2018-04-11T19:09:35.174Z,21.33
2018-04-11T19:12:02.959Z,23.87
2018-04-11T19:14:30.690Z,40.10
2018-04-11T19:16:58.659Z,73.50
2018-04-11T19:19:26.320Z,54.27
2018-04-11T19:21:53.900Z,40.93
2018-04-11T19:24:22.235Z,34.53
2018-04-11T19:26:49.822Z,42.27
2018-04-11T19:29:17.487Z,40.07
2018-04-11T19:31:45.339Z,36.53
2018-04-11T19:34:12.921Z,31.93
2018-04-11T19:36:40.494Z,31.53
2018-04-11T19:39:08.226Z,35.27
2018-04-11T19:41:36.018Z,37.60
2018-04-11T19:44:03.731Z,39.23
2018-04-11T19:46:31.460Z,36.20
2018-04-11T19:48:59.815Z,37.73
2018-04-11T19:51:28.902Z,33.53
2018-04-11T19:53:56.846Z,35.80
2018-04-11T19:56:24.421Z,24.00
2018-04-11T19:58:52.054Z,29.00
2018-04-11T20:01:19.687Z,28.97
2018-04-11T20:03:48.122Z,53.10
2018-04-11T20:06:15.699Z,34.83
2018-04-11T20:08:43.310Z,39.40
2018-04-11T20:11:10.936Z,35.10
2018-04-11T20:13:39.386Z,34.43
2018-04-11T20:16:07.022Z,32.57
2018-04-11T20:18:34.612Z,35.60
2018-04-11T20:21:02.195Z,38.13
2018-04-11T20:23:30.585Z,32.53
2018-04-11T20:25:58.176Z,31.77
2018-04-11T20:28:25.854Z,30.87
2018-04-11T20:30:54.010Z,36.40
2018-04-11T20:33:21.624Z,30.17
2018-04-11T20:35:49.245Z,22.43
2018-04-11T20:38:17.096Z,21.93
2018-04-11T20:40:44.764Z,32.87
2018-04-11T20:43:12.338Z,29.37
2018-04-11T20:45:39.955Z,34.83
2018-04-11T20:48:07.555Z,28.60
2018-04-11T20:50:35.347Z,24.57
2018-04-11T20:53:03.874Z,28.63
2018-04-11T20:55:31.447Z,35.43
2018-04-11T20:57:59.007Z,43.37
2018-04-11T21:00:26.631Z,53.07
2018-04-11T21:02:54.220Z,51.23
2018-04-11T21:05:21.779Z,38.33
2018-04-11T21:07:49.374Z,41.13
2018-04-11T21:10:17.196Z,38.10
2018-04-11T21:12:44.775Z,39.40
2018-04-11T21:15:12.550Z,28.23
2018-04-11T21:17:40.274Z,33.63
2018-04-11T21:20:08.047Z,31.03
2018-04-11T21:22:35.913Z,24.30
2018-04-11T21:25:03.470Z,32.83
2018-04-11T21:27:31.058Z,35.00
2018-04-11T21:29:58.912Z,41.07
2018-04-11T21:32:26.547Z,51.17
2018-04-11T21:34:54.108Z,39.40
2018-04-11T21:37:21.715Z,28.47
2018-04-11T21:39:49.275Z,28.53
2018-04-11T21:42:17.801Z,26.40
2018-04-11T21:44:45.447Z,86.90
2018-04-11T21:47:13.006Z,64.80
2018-04-11T21:49:40.565Z,34.97
2018-04-11T21:52:08.508Z,21.20
2018-04-11T21:54:36.829Z,34.77
2018-04-11T21:57:04.439Z,33.57
2018-04-11T21:59:32.807Z,37.63
2018-04-11T22:02:00.399Z,45.43
2018-04-11T22:04:27.959Z,36.67
2018-04-11T22:06:55.570Z,39.97
2018-04-11T22:09:24.035Z,40.50
2018-04-11T22:11:51.839Z,38.40
2018-04-11T22:14:20.200Z,38.67
2018-04-11T22:16:47.891Z,27.50
2018-04-11T22:19:15.455Z,25.37
2018-04-11T22:21:43.925Z,24.73
2018-04-11T22:24:12.331Z,22.07
2018-04-11T22:26:39.955Z,23.73
2018-04-11T22:29:07.583Z,25.90
2018-04-11T22:31:35.142Z,35.13
2018-04-11T22:34:02.703Z,29.77
2018-04-11T22:36:30.506Z,30.17
2018-04-11T22:38:58.982Z,30.37
2018-04-11T22:41:27.374Z,30.03
2018-04-11T22:43:54.982Z,27.57
2018-04-11T22:46:22.575Z,29.60
2018-04-11T22:48:50.898Z,33.47
2018-04-11T22:51:18.502Z,26.87
2018-04-11T22:53:46.086Z,25.37
2018-04-11T22:56:13.653Z,25.97
2018-04-11T22:58:41.303Z,25.10
2018-04-11T23:01:08.866Z,20.80
2018-04-11T23:03:36.422Z,18.37
2018-04-11T23:06:04.031Z,23.30
2018-04-11T23:08:31.590Z,19.00
2018-04-11T23:10:59.164Z,22.67
2018-04-11T23:13:26.770Z,16.33
2018-04-11T23:15:54.334Z,19.30
2018-04-11T23:18:22.110Z,21.73
2018-04-11T23:20:49.810Z,26.13
2018-04-11T23:23:17.369Z,19.27
2018-04-11T23:25:45.002Z,21.83
2018-04-11T23:28:12.606Z,22.93
2018-04-11T23:30:40.932Z,17.60
2018-04-11T23:33:08.518Z,22.00
2018-04-11T23:35:36.271Z,15.87
2018-04-11T23:38:03.858Z,18.50
2018-04-11T23:40:32.186Z,19.77
2018-04-11T23:43:00.024Z,16.57
2018-04-11T23:45:27.790Z,19.17
2018-04-11T23:47:55.357Z,18.03
2018-04-11T23:50:23.339Z,19.63
2018-04-11T23:52:50.894Z,18.37
2018-04-11T23:55:18.454Z,16.50
2018-04-11T23:57:46.041Z,17.77
